Atlanticbeach, North Carolina
Current Conditions -  °F | °C
As of 10:58 AM on Thursday 27 Nov 2014 (Local Time) from KMRH Reporting Station
Scattered Clouds Scattered Clouds  
Wind Chill: 57°   Ceiling: Unl
Heat Index: 57°   Visibility: 10mi
Dew Point: 44°   Wind: 15mph
Humidity: 62%   Direction: 250°WSW
Pressure: 29.99"   Gusts: NA
Location:  34.6984°N, 76.7775°W
Report Text: KMRH 271558Z AUTO 25013KT 10SM SCT060 14/07 A2999 RMK AO2 SLP154 T01390067 TSNO
Loading
Personal Weather Stations






























Interactive Weather Map New forecast layout! Learn more

10-Day Weather Forecast

Advertisements
Track Severe Weather on mobile